createdAt,value
2019-05-26T05:02:21.512Z,5.67
2019-05-26T05:04:50.734Z,4.53
2019-05-26T05:07:19.981Z,7.23
2019-05-26T05:09:49.192Z,9.53
2019-05-26T05:12:18.607Z,4.33
2019-05-26T05:14:47.850Z,4.50
2019-05-26T05:17:17.125Z,4.17
2019-05-26T05:19:46.778Z,8.73
2019-05-26T05:22:16.166Z,7.40
2019-05-26T05:24:45.378Z,4.87
2019-05-26T05:27:14.661Z,9.40
2019-05-26T05:29:44.067Z,5.83
2019-05-26T05:32:13.458Z,6.43
2019-05-26T05:34:42.704Z,7.63
2019-05-26T05:37:12.018Z,9.87
2019-05-26T05:39:41.336Z,5.87
2019-05-26T05:42:10.470Z,6.27
2019-05-26T05:44:39.796Z,6.80
2019-05-26T05:47:09.158Z,10.17
2019-05-26T05:49:38.815Z,10.23
2019-05-26T05:52:08.326Z,9.40
2019-05-26T05:54:37.796Z,8.63
2019-05-26T05:57:07.444Z,8.57
2019-05-26T05:59:36.850Z,10.97
2019-05-26T06:02:06.408Z,9.10
2019-05-26T06:04:35.821Z,9.33
2019-05-26T06:07:06.315Z,9.20
2019-05-26T06:09:35.615Z,8.57
2019-05-26T06:12:05.350Z,7.50
2019-05-26T06:14:34.712Z,10.07
2019-05-26T06:17:04.220Z,9.53
2019-05-26T06:19:33.679Z,9.53
2019-05-26T06:22:03.171Z,12.83
2019-05-26T06:24:32.658Z,10.77
2019-05-26T06:27:01.917Z,9.57
2019-05-26T06:29:31.195Z,10.67
2019-05-26T06:32:00.817Z,11.00
2019-05-26T06:34:30.175Z,14.53
2019-05-26T06:36:59.379Z,11.50
2019-05-26T06:39:28.771Z,10.47
2019-05-26T06:41:58.127Z,11.53
2019-05-26T06:44:27.394Z,10.40
2019-05-26T06:46:56.663Z,8.87
2019-05-26T06:49:26.088Z,10.87
2019-05-26T06:51:55.514Z,10.77
2019-05-26T06:54:24.878Z,8.63
2019-05-26T06:56:54.175Z,11.03
2019-05-26T06:59:23.468Z,8.80
2019-05-26T07:01:52.759Z,11.40
2019-05-26T07:04:27.077Z,8.77
2019-05-26T07:06:56.565Z,10.43
2019-05-26T07:09:25.850Z,10.10
2019-05-26T07:12:00.206Z,10.03
2019-05-26T07:14:27.097Z,12.20
2019-05-26T07:16:56.239Z,12.23
2019-05-26T07:19:25.609Z,9.87
2019-05-26T07:21:55.057Z,8.07
2019-05-26T07:24:24.359Z,11.10
2019-05-26T07:26:53.754Z,12.40
2019-05-26T07:29:23.083Z,10.83
2019-05-26T07:31:52.314Z,10.07
2019-05-26T07:34:21.770Z,11.57
2019-05-26T07:36:51.058Z,11.13
2019-05-26T07:39:20.320Z,9.43
2019-05-26T07:42:08.188Z,11.00
2019-05-26T07:44:20.779Z,12.03
2019-05-26T07:46:49.931Z,8.80
2019-05-26T07:49:19.276Z,11.97
2019-05-26T07:51:48.836Z,9.57
2019-05-26T07:54:25.560Z,11.73
2019-05-26T07:56:49.527Z,11.87
2019-05-26T07:59:19.000Z,16.13
2019-05-26T08:01:48.408Z,9.10
2019-05-26T08:04:17.807Z,10.50
2019-05-26T08:06:47.183Z,10.57
2019-05-26T08:09:17.698Z,9.90
2019-05-26T08:11:47.038Z,11.93
2019-05-26T08:14:16.273Z,8.63
2019-05-26T08:16:45.721Z,11.93
2019-05-26T08:19:14.968Z,9.93
2019-05-26T08:21:44.196Z,10.70
2019-05-26T08:24:13.533Z,8.73
2019-05-26T08:26:43.116Z,9.73
2019-05-26T08:29:12.509Z,11.23
2019-05-26T08:31:41.847Z,11.03
2019-05-26T08:34:16.546Z,10.93
2019-05-26T08:36:46.023Z,11.67
2019-05-26T08:39:15.366Z,10.63
2019-05-26T08:41:44.511Z,12.77
2019-05-26T08:44:13.797Z,10.83
2019-05-26T08:46:43.161Z,10.43
2019-05-26T08:49:12.485Z,11.60
2019-05-26T08:51:41.851Z,10.17
2019-05-26T08:54:11.300Z,9.83
2019-05-26T08:56:40.669Z,12.53
2019-05-26T08:59:09.895Z,11.17
2019-05-26T09:01:39.112Z,9.57
2019-05-26T09:04:08.753Z,10.73
2019-05-26T09:06:38.030Z,9.63
2019-05-26T09:09:13.145Z,10.13
2019-05-26T09:11:48.248Z,10.37
2019-05-26T09:14:17.752Z,11.73
2019-05-26T09:16:47.090Z,9.17
2019-05-26T09:19:16.643Z,10.97
2019-05-26T09:21:46.154Z,9.43
2019-05-26T09:24:15.349Z,10.50
2019-05-26T09:26:44.623Z,8.33
2019-05-26T09:29:13.905Z,11.47
2019-05-26T09:31:43.125Z,11.43
2019-05-26T09:34:12.331Z,10.23
2019-05-26T09:36:41.540Z,10.73
2019-05-26T09:39:10.815Z,10.93
2019-05-26T09:41:40.194Z,9.43
2019-05-26T09:44:09.440Z,13.60
2019-05-26T09:46:40.794Z,8.47
2019-05-26T09:49:14.282Z,12.43
2019-05-26T09:51:48.905Z,7.73
2019-05-26T09:54:23.093Z,9.90
2019-05-26T09:56:57.731Z,9.57
2019-05-26T09:59:32.710Z,9.23
2019-05-26T10:02:08.089Z,11.70
2019-05-26T10:04:43.160Z,9.20
2019-05-26T10:07:15.795Z,11.43
2019-05-26T10:09:43.595Z,12.40
2019-05-26T10:12:13.127Z,10.13
2019-05-26T10:14:42.632Z,11.43
2019-05-26T10:17:12.132Z,10.57
2019-05-26T10:19:42.692Z,9.43
2019-05-26T10:22:12.038Z,8.63
2019-05-26T10:24:41.360Z,10.27
2019-05-26T10:27:10.702Z,8.77
2019-05-26T10:30:03.381Z,10.83
2019-05-26T10:32:32.863Z,9.60
2019-05-26T10:35:02.233Z,23.17
2019-05-26T10:37:31.584Z,9.83
2019-05-26T10:40:00.944Z,11.20
2019-05-26T10:42:35.494Z,9.03
2019-05-26T10:45:10.364Z,8.40
2019-05-26T10:47:45.242Z,9.07
2019-05-26T10:50:15.210Z,9.37
2019-05-26T10:52:56.504Z,9.37
2019-05-26T10:55:25.814Z,15.37
2019-05-26T10:57:55.164Z,11.93
2019-05-26T11:00:32.838Z,11.70
2019-05-26T11:03:22.982Z,9.23
2019-05-26T11:06:12.034Z,7.77
2019-05-26T11:08:41.637Z,7.53
2019-05-26T11:11:11.018Z,10.23
2019-05-26T11:14:03.007Z,10.00
2019-05-26T11:16:30.869Z,8.60
2019-05-26T11:19:00.273Z,8.23
2019-05-26T11:21:29.952Z,11.20
2019-05-26T11:23:59.374Z,6.80
2019-05-26T11:26:28.710Z,6.90
2019-05-26T11:28:58.062Z,6.13
2019-05-26T11:31:27.465Z,7.50
2019-05-26T11:33:56.847Z,7.80
2019-05-26T11:36:26.208Z,8.07
2019-05-26T11:38:55.540Z,7.07
2019-05-26T11:41:24.861Z,7.80
2019-05-26T11:43:57.301Z,7.10
2019-05-26T11:46:26.669Z,6.83
2019-05-26T11:48:56.465Z,6.20
2019-05-26T11:51:25.792Z,8.10
2019-05-26T11:53:55.174Z,11.77
2019-05-26T11:56:24.459Z,10.37
2019-05-26T11:58:53.878Z,6.67
2019-05-26T12:01:23.365Z,6.30
2019-05-26T12:03:57.954Z,5.70
2019-05-26T12:06:27.388Z,6.87
2019-05-26T12:09:00.191Z,4.80
2019-05-26T12:11:29.450Z,6.23
2019-05-26T12:13:58.668Z,4.23
2019-05-26T12:16:49.456Z,5.50
2019-05-26T12:19:18.914Z,5.37
2019-05-26T12:21:48.309Z,6.63
2019-05-26T12:24:17.566Z,10.00
2019-05-26T12:26:47.641Z,6.37
2019-05-26T12:32:16.135Z,6.07
2019-05-26T12:34:45.454Z,5.63
2019-05-26T12:37:14.726Z,6.53
2019-05-26T12:39:43.929Z,5.43
2019-05-26T12:42:16.777Z,4.83
2019-05-26T12:44:49.382Z,5.17
2019-05-26T12:47:15.396Z,13.43
2019-05-26T12:49:44.643Z,6.40
2019-05-26T12:52:13.803Z,6.20
2019-05-26T12:54:42.959Z,6.00
2019-05-26T12:57:12.265Z,6.57
2019-05-26T12:59:41.831Z,6.30
2019-05-26T13:02:11.541Z,6.10
2019-05-26T13:04:40.736Z,4.93
2019-05-26T13:07:09.846Z,7.73
2019-05-26T13:09:39.029Z,18.63
2019-05-26T13:12:08.579Z,6.50
2019-05-26T13:14:38.115Z,7.53
2019-05-26T13:17:07.689Z,7.60
2019-05-26T13:19:37.070Z,6.43
2019-05-26T13:22:07.807Z,4.80
2019-05-26T13:24:37.004Z,4.33
2019-05-26T13:27:06.466Z,4.77
2019-05-26T13:29:35.675Z,6.10
2019-05-26T13:32:04.970Z,5.07
2019-05-26T13:34:35.801Z,6.77
2019-05-26T13:37:05.413Z,4.33
2019-05-26T13:39:34.779Z,5.00
2019-05-26T13:42:04.039Z,7.83
2019-05-26T13:44:33.361Z,4.70
2019-05-26T13:47:02.797Z,5.10
2019-05-26T13:49:32.087Z,7.40
2019-05-26T13:52:01.338Z,4.77
2019-05-26T13:54:31.455Z,4.37
2019-05-26T13:57:00.609Z,5.00
2019-05-26T13:59:29.804Z,4.73
2019-05-26T14:02:02.107Z,6.80
2019-05-26T14:04:32.549Z,3.70
2019-05-26T14:07:01.913Z,6.77
2019-05-26T14:09:31.071Z,4.35
2019-05-26T14:12:00.588Z,4.93
2019-05-26T14:14:29.869Z,4.63
2019-05-26T14:16:59.899Z,4.13
2019-05-26T14:19:48.527Z,4.13
2019-05-26T14:22:37.159Z,5.07
2019-05-26T14:25:06.487Z,4.20
2019-05-26T14:27:38.607Z,4.90
2019-05-26T14:30:08.598Z,6.87
2019-05-26T14:32:37.981Z,3.70
2019-05-26T14:35:07.343Z,5.47
2019-05-26T14:37:37.121Z,4.50
2019-05-26T14:40:06.597Z,5.97
2019-05-26T14:42:35.772Z,9.93
2019-05-26T14:45:05.733Z,9.97
2019-05-26T14:47:35.023Z,8.97
2019-05-26T14:50:04.866Z,5.53
2019-05-26T14:52:34.137Z,4.83
2019-05-26T14:55:03.511Z,5.27
2019-05-26T14:57:32.769Z,6.13
2019-05-26T15:00:02.276Z,7.20
2019-05-26T15:02:31.666Z,6.63
2019-05-26T15:05:00.991Z,5.17
2019-05-26T15:07:30.239Z,6.70
2019-05-26T15:09:59.490Z,6.60
2019-05-26T15:12:28.703Z,5.77
2019-05-26T15:14:58.221Z,5.63
2019-05-26T15:17:27.631Z,7.07
2019-05-26T15:19:57.939Z,6.20
2019-05-26T15:22:27.226Z,5.80
2019-05-26T15:24:56.571Z,6.70
2019-05-26T15:27:25.976Z,5.53
2019-05-26T15:29:55.867Z,5.73
2019-05-26T15:32:28.136Z,5.73
2019-05-26T15:37:47.277Z,7.67
2019-05-26T15:40:16.669Z,8.03
2019-05-26T15:42:46.120Z,5.93
2019-05-26T15:45:15.704Z,3.97
2019-05-26T15:47:45.196Z,6.00
2019-05-26T15:50:14.850Z,5.60
2019-05-26T15:52:44.442Z,2.47
2019-05-26T15:55:14.185Z,4.27
2019-05-26T15:57:43.958Z,3.40
2019-05-26T16:00:13.948Z,5.17
2019-05-26T16:02:43.349Z,3.17
2019-05-26T16:05:12.698Z,2.93
2019-05-26T16:07:42.092Z,2.80
2019-05-26T16:10:11.688Z,2.90
2019-05-26T16:12:40.845Z,2.87
2019-05-26T16:15:10.471Z,4.37
2019-05-26T16:17:39.852Z,2.90
2019-05-26T16:20:09.592Z,1.97
2019-05-26T16:22:39.834Z,2.20
2019-05-26T16:25:09.244Z,3.00
2019-05-26T16:27:38.666Z,4.20
2019-05-26T16:30:09.212Z,4.00
2019-05-26T16:32:39.755Z,3.00
2019-05-26T16:35:10.571Z,3.40
2019-05-26T16:37:40.007Z,2.13
2019-05-26T16:40:10.368Z,3.37
2019-05-26T16:42:39.723Z,2.53
2019-05-26T16:45:09.824Z,3.43
2019-05-26T16:47:39.057Z,4.37
2019-05-26T16:50:08.472Z,2.50
2019-05-26T16:52:37.682Z,3.37
2019-05-26T16:55:07.700Z,2.93
2019-05-26T16:57:36.942Z,4.20
2019-05-26T17:00:06.341Z,2.63
2019-05-26T17:02:35.628Z,2.80
2019-05-26T17:05:05.370Z,5.40
2019-05-26T17:07:34.618Z,4.63
2019-05-26T17:10:04.396Z,2.70
2019-05-26T17:12:33.754Z,1.70
2019-05-26T17:15:03.062Z,1.83
2019-05-26T17:17:32.507Z,1.67
2019-05-26T17:20:01.902Z,2.20
2019-05-26T17:22:31.255Z,2.00
2019-05-26T17:25:00.585Z,4.53
2019-05-26T17:27:29.799Z,1.90
2019-05-26T17:29:59.004Z,6.33
2019-05-26T17:32:28.385Z,2.10
2019-05-26T17:34:57.781Z,4.47
2019-05-26T17:37:27.375Z,2.57
2019-05-26T17:39:56.695Z,2.50
2019-05-26T17:42:26.023Z,2.13
2019-05-26T17:44:56.482Z,2.73
